sensor_id;sensor_type;location;lat;lon;timestamp;P1;durP1;ratioP1;P2;durP2;ratioP2
79330;SDS011;68797;49.782;19.054;2023-09-12T00:00:08;19.92;;;13.73;;
79330;SDS011;68797;49.782;19.054;2023-09-12T00:03:01;19.52;;;14.05;;
79330;SDS011;68797;49.782;19.054;2023-09-12T00:05:28;19.83;;;12.60;;
79330;SDS011;68797;49.782;19.054;2023-09-12T00:07:55;20.20;;;13.43;;
79330;SDS011;68797;49.782;19.054;2023-09-12T00:10:22;17.80;;;12.65;;
79330;SDS011;68797;49.782;19.054;2023-09-12T00:12:53;19.45;;;13.45;;
79330;SDS011;68797;49.782;19.054;2023-09-12T00:15:19;17.17;;;13.07;;
79330;SDS011;68797;49.782;19.054;2023-09-12T00:17:46;16.65;;;12.30;;
79330;SDS011;68797;49.782;19.054;2023-09-12T00:20:15;19.58;;;13.20;;
79330;SDS011;68797;49.782;19.054;2023-09-12T00:22:42;18.45;;;13.27;;
79330;SDS011;68797;49.782;19.054;2023-09-12T00:25:09;21.33;;;13.85;;
79330;SDS011;68797;49.782;19.054;2023-09-12T00:27:36;19.60;;;13.18;;
79330;SDS011;68797;49.782;19.054;2023-09-12T00:30:05;20.70;;;13.05;;
79330;SDS011;68797;49.782;19.054;2023-09-12T00:32:32;17.17;;;13.05;;
79330;SDS011;68797;49.782;19.054;2023-09-12T00:35:00;17.92;;;12.57;;
79330;SDS011;68797;49.782;19.054;2023-09-12T00:37:26;19.08;;;12.95;;
79330;SDS011;68797;49.782;19.054;2023-09-12T00:39:53;20.17;;;13.88;;
79330;SDS011;68797;49.782;19.054;2023-09-12T00:42:21;19.05;;;12.77;;
79330;SDS011;68797;49.782;19.054;2023-09-12T00:44:48;20.13;;;13.60;;
79330;SDS011;68797;49.782;19.054;2023-09-12T00:47:15;21.77;;;14.68;;
79330;SDS011;68797;49.782;19.054;2023-09-12T00:49:41;21.17;;;14.98;;
79330;SDS011;68797;49.782;19.054;2023-09-12T00:52:10;22.88;;;15.60;;
79330;SDS011;68797;49.782;19.054;2023-09-12T00:54:38;26.77;;;18.58;;
79330;SDS011;68797;49.782;19.054;2023-09-12T00:57:06;26.45;;;17.80;;
79330;SDS011;68797;49.782;19.054;2023-09-12T00:59:34;25.20;;;18.70;;
79330;SDS011;68797;49.782;19.054;2023-09-12T01:02:01;27.95;;;18.42;;
79330;SDS011;68797;49.782;19.054;2023-09-12T01:04:28;29.48;;;18.95;;
79330;SDS011;68797;49.782;19.054;2023-09-12T01:06:56;27.50;;;19.05;;
79330;SDS011;68797;49.782;19.054;2023-09-12T01:09:22;27.92;;;16.23;;
79330;SDS011;68797;49.782;19.054;2023-09-12T01:11:49;24.70;;;16.52;;
79330;SDS011;68797;49.782;19.054;2023-09-12T01:14:17;20.63;;;14.45;;
79330;SDS011;68797;49.782;19.054;2023-09-12T01:16:46;19.17;;;13.23;;
79330;SDS011;68797;49.782;19.054;2023-09-12T01:19:13;19.75;;;13.65;;
79330;SDS011;68797;49.782;19.054;2023-09-12T01:22:03;19.35;;;13.70;;
79330;SDS011;68797;49.782;19.054;2023-09-12T01:24:52;15.73;;;12.70;;
79330;SDS011;68797;49.782;19.054;2023-09-12T01:27:42;18.00;;;12.02;;
79330;SDS011;68797;49.782;19.054;2023-09-12T01:30:22;16.52;;;11.30;;
79330;SDS011;68797;49.782;19.054;2023-09-12T01:32:49;20.38;;;11.55;;
79330;SDS011;68797;49.782;19.054;2023-09-12T01:35:16;16.73;;;12.27;;
79330;SDS011;68797;49.782;19.054;2023-09-12T01:37:43;14.85;;;11.93;;
79330;SDS011;68797;49.782;19.054;2023-09-12T01:40:10;16.42;;;12.10;;
79330;SDS011;68797;49.782;19.054;2023-09-12T01:42:43;18.30;;;12.10;;
79330;SDS011;68797;49.782;19.054;2023-09-12T01:45:13;22.05;;;12.43;;
79330;SDS011;68797;49.782;19.054;2023-09-12T01:47:45;17.70;;;11.48;;
79330;SDS011;68797;49.782;19.054;2023-09-12T01:50:15;16.23;;;12.13;;
79330;SDS011;68797;49.782;19.054;2023-09-12T01:52:43;20.85;;;13.40;;
79330;SDS011;68797;49.782;19.054;2023-09-12T01:55:12;17.10;;;12.07;;
79330;SDS011;68797;49.782;19.054;2023-09-12T01:57:42;18.52;;;11.90;;
79330;SDS011;68797;49.782;19.054;2023-09-12T02:00:09;15.95;;;11.63;;
79330;SDS011;68797;49.782;19.054;2023-09-12T02:02:37;18.13;;;13.30;;
79330;SDS011;68797;49.782;19.054;2023-09-12T02:05:22;16.63;;;12.18;;
79330;SDS011;68797;49.782;19.054;2023-09-12T02:07:50;23.25;;;12.57;;
79330;SDS011;68797;49.782;19.054;2023-09-12T02:10:16;14.07;;;11.50;;
79330;SDS011;68797;49.782;19.054;2023-09-12T02:12:44;16.33;;;11.25;;
79330;SDS011;68797;49.782;19.054;2023-09-12T02:15:10;16.77;;;11.88;;
79330;SDS011;68797;49.782;19.054;2023-09-12T02:17:38;16.17;;;11.70;;
79330;SDS011;68797;49.782;19.054;2023-09-12T02:20:06;18.27;;;11.88;;
79330;SDS011;68797;49.782;19.054;2023-09-12T02:22:35;15.50;;;11.85;;
79330;SDS011;68797;49.782;19.054;2023-09-12T02:25:03;17.13;;;12.18;;
79330;SDS011;68797;49.782;19.054;2023-09-12T02:27:33;16.75;;;12.48;;
79330;SDS011;68797;49.782;19.054;2023-09-12T02:30:00;15.50;;;11.43;;
79330;SDS011;68797;49.782;19.054;2023-09-12T02:32:27;20.00;;;12.93;;
79330;SDS011;68797;49.782;19.054;2023-09-12T02:34:53;16.80;;;12.95;;
79330;SDS011;68797;49.782;19.054;2023-09-12T02:37:22;15.50;;;11.80;;
79330;SDS011;68797;49.782;19.054;2023-09-12T02:39:50;17.10;;;11.57;;
79330;SDS011;68797;49.782;19.054;2023-09-12T02:42:17;15.88;;;12.43;;
79330;SDS011;68797;49.782;19.054;2023-09-12T02:44:44;15.77;;;12.32;;
79330;SDS011;68797;49.782;19.054;2023-09-12T02:47:11;20.55;;;12.75;;
79330;SDS011;68797;49.782;19.054;2023-09-12T02:49:38;17.98;;;12.70;;
79330;SDS011;68797;49.782;19.054;2023-09-12T02:52:05;17.88;;;12.50;;
79330;SDS011;68797;49.782;19.054;2023-09-12T02:54:32;20.00;;;12.88;;
79330;SDS011;68797;49.782;19.054;2023-09-12T02:56:59;15.25;;;11.57;;
79330;SDS011;68797;49.782;19.054;2023-09-12T02:59:26;15.50;;;11.63;;
79330;SDS011;68797;49.782;19.054;2023-09-12T03:01:53;17.98;;;11.77;;
79330;SDS011;68797;49.782;19.054;2023-09-12T03:04:20;16.15;;;11.82;;
79330;SDS011;68797;49.782;19.054;2023-09-12T03:06:47;16.02;;;12.20;;
79330;SDS011;68797;49.782;19.054;2023-09-12T03:09:13;18.48;;;11.77;;
79330;SDS011;68797;49.782;19.054;2023-09-12T03:11:43;16.60;;;11.25;;
79330;SDS011;68797;49.782;19.054;2023-09-12T03:14:10;13.43;;;10.60;;
79330;SDS011;68797;49.782;19.054;2023-09-12T03:16:37;16.25;;;11.48;;
79330;SDS011;68797;49.782;19.054;2023-09-12T03:19:04;16.80;;;10.80;;
79330;SDS011;68797;49.782;19.054;2023-09-12T03:21:30;16.00;;;11.25;;
79330;SDS011;68797;49.782;19.054;2023-09-12T03:24:00;14.60;;;10.68;;
79330;SDS011;68797;49.782;19.054;2023-09-12T03:26:27;15.15;;;11.95;;
79330;SDS011;68797;49.782;19.054;2023-09-12T03:28:54;15.15;;;11.27;;
79330;SDS011;68797;49.782;19.054;2023-09-12T03:31:23;15.85;;;11.50;;
79330;SDS011;68797;49.782;19.054;2023-09-12T03:33:50;15.25;;;10.73;;
79330;SDS011;68797;49.782;19.054;2023-09-12T03:36:18;14.77;;;11.73;;
79330;SDS011;68797;49.782;19.054;2023-09-12T03:41:12;17.52;;;11.57;;
79330;SDS011;68797;49.782;19.054;2023-09-12T03:43:41;15.95;;;11.00;;
79330;SDS011;68797;49.782;19.054;2023-09-12T03:48:35;14.77;;;11.00;;
79330;SDS011;68797;49.782;19.054;2023-09-12T03:51:02;17.48;;;11.07;;
79330;SDS011;68797;49.782;19.054;2023-09-12T03:53:31;15.38;;;11.38;;
79330;SDS011;68797;49.782;19.054;2023-09-12T03:55:57;13.68;;;10.20;;
79330;SDS011;68797;49.782;19.054;2023-09-12T03:58:26;15.63;;;10.57;;
79330;SDS011;68797;49.782;19.054;2023-09-12T04:00:52;14.93;;;11.55;;
79330;SDS011;68797;49.782;19.054;2023-09-12T04:03:19;16.45;;;11.45;;
79330;SDS011;68797;49.782;19.054;2023-09-12T04:05:46;16.10;;;10.95;;
79330;SDS011;68797;49.782;19.054;2023-09-12T04:08:13;17.83;;;10.88;;
79330;SDS011;68797;49.782;19.054;2023-09-12T04:10:39;14.98;;;11.35;;
79330;SDS011;68797;49.782;19.054;2023-09-12T04:13:06;16.20;;;11.18;;
79330;SDS011;68797;49.782;19.054;2023-09-12T04:15:32;13.85;;;11.30;;
79330;SDS011;68797;49.782;19.054;2023-09-12T04:18:00;12.88;;;9.68;;
79330;SDS011;68797;49.782;19.054;2023-09-12T04:20:26;13.60;;;10.80;;
79330;SDS011;68797;49.782;19.054;2023-09-12T04:22:54;13.73;;;10.13;;
79330;SDS011;68797;49.782;19.054;2023-09-12T04:25:23;15.07;;;10.85;;
79330;SDS011;68797;49.782;19.054;2023-09-12T04:32:06;16.38;;;10.63;;
79330;SDS011;68797;49.782;19.054;2023-09-12T04:34:34;13.38;;;9.60;;
79330;SDS011;68797;49.782;19.054;2023-09-12T04:37:02;13.02;;;10.02;;
79330;SDS011;68797;49.782;19.054;2023-09-12T04:39:29;13.02;;;9.45;;
79330;SDS011;68797;49.782;19.054;2023-09-12T04:41:59;15.82;;;10.60;;
79330;SDS011;68797;49.782;19.054;2023-09-12T04:44:26;15.93;;;10.05;;
79330;SDS011;68797;49.782;19.054;2023-09-12T04:46:52;14.73;;;10.30;;
79330;SDS011;68797;49.782;19.054;2023-09-12T04:49:19;12.60;;;10.02;;
79330;SDS011;68797;49.782;19.054;2023-09-12T04:51:47;11.98;;;9.55;;
79330;SDS011;68797;49.782;19.054;2023-09-12T04:54:14;13.80;;;10.65;;
79330;SDS011;68797;49.782;19.054;2023-09-12T04:56:42;13.25;;;11.00;;
79330;SDS011;68797;49.782;19.054;2023-09-12T04:59:09;15.15;;;11.23;;
79330;SDS011;68797;49.782;19.054;2023-09-12T05:01:35;14.77;;;10.32;;
79330;SDS011;68797;49.782;19.054;2023-09-12T05:04:03;13.85;;;10.38;;
79330;SDS011;68797;49.782;19.054;2023-09-12T05:06:31;15.45;;;11.25;;
79330;SDS011;68797;49.782;19.054;2023-09-12T05:09:07;13.82;;;10.07;;
79330;SDS011;68797;49.782;19.054;2023-09-12T05:11:36;15.45;;;10.93;;
79330;SDS011;68797;49.782;19.054;2023-09-12T05:14:04;17.63;;;10.68;;
79330;SDS011;68797;49.782;19.054;2023-09-12T05:16:31;14.25;;;10.10;;
79330;SDS011;68797;49.782;19.054;2023-09-12T05:18:59;13.57;;;10.15;;
79330;SDS011;68797;49.782;19.054;2023-09-12T05:21:26;12.95;;;9.75;;
79330;SDS011;68797;49.782;19.054;2023-09-12T05:23:54;12.27;;;10.18;;
79330;SDS011;68797;49.782;19.054;2023-09-12T05:26:21;13.38;;;9.65;;
79330;SDS011;68797;49.782;19.054;2023-09-12T05:28:48;13.55;;;9.35;;
79330;SDS011;68797;49.782;19.054;2023-09-12T05:33:43;14.18;;;9.25;;
79330;SDS011;68797;49.782;19.054;2023-09-12T05:36:11;14.90;;;10.02;;
79330;SDS011;68797;49.782;19.054;2023-09-12T05:38:37;14.35;;;10.18;;
79330;SDS011;68797;49.782;19.054;2023-09-12T05:41:04;14.02;;;10.43;;
79330;SDS011;68797;49.782;19.054;2023-09-12T05:43:30;16.45;;;11.43;;
79330;SDS011;68797;49.782;19.054;2023-09-12T05:45:57;15.00;;;11.00;;
79330;SDS011;68797;49.782;19.054;2023-09-12T05:48:24;12.68;;;10.00;;
79330;SDS011;68797;49.782;19.054;2023-09-12T05:50:50;14.73;;;11.10;;
79330;SDS011;68797;49.782;19.054;2023-09-12T05:55:43;15.98;;;10.38;;
79330;SDS011;68797;49.782;19.054;2023-09-12T05:58:10;13.50;;;10.95;;
79330;SDS011;68797;49.782;19.054;2023-09-12T06:00:37;14.38;;;11.07;;
79330;SDS011;68797;49.782;19.054;2023-09-12T06:03:03;14.75;;;12.00;;
79330;SDS011;68797;49.782;19.054;2023-09-12T06:05:29;15.30;;;11.77;;
79330;SDS011;68797;49.782;19.054;2023-09-12T06:07:56;15.25;;;11.68;;
79330;SDS011;68797;49.782;19.054;2023-09-12T06:10:22;14.18;;;9.98;;
79330;SDS011;68797;49.782;19.054;2023-09-12T06:12:48;14.00;;;11.35;;
79330;SDS011;68797;49.782;19.054;2023-09-12T06:15:15;13.48;;;10.27;;
79330;SDS011;68797;49.782;19.054;2023-09-12T06:17:41;13.02;;;10.40;;
79330;SDS011;68797;49.782;19.054;2023-09-12T06:20:08;12.60;;;9.98;;
79330;SDS011;68797;49.782;19.054;2023-09-12T06:22:34;13.23;;;9.98;;
79330;SDS011;68797;49.782;19.054;2023-09-12T06:25:01;11.75;;;9.50;;
79330;SDS011;68797;49.782;19.054;2023-09-12T06:27:30;13.50;;;9.75;;
79330;SDS011;68797;49.782;19.054;2023-09-12T06:29:57;11.75;;;9.05;;
79330;SDS011;68797;49.782;19.054;2023-09-12T06:32:23;10.45;;;9.05;;
79330;SDS011;68797;49.782;19.054;2023-09-12T06:34:49;11.20;;;8.43;;
79330;SDS011;68797;49.782;19.054;2023-09-12T06:37:16;13.00;;;9.13;;
79330;SDS011;68797;49.782;19.054;2023-09-12T06:39:42;11.20;;;8.43;;
79330;SDS011;68797;49.782;19.054;2023-09-12T06:42:09;10.88;;;8.80;;
79330;SDS011;68797;49.782;19.054;2023-09-12T06:44:36;11.43;;;9.00;;
79330;SDS011;68797;49.782;19.054;2023-09-12T06:47:05;12.18;;;8.43;;
79330;SDS011;68797;49.782;19.054;2023-09-12T06:49:31;11.55;;;8.85;;
79330;SDS011;68797;49.782;19.054;2023-09-12T06:52:02;11.25;;;8.98;;
79330;SDS011;68797;49.782;19.054;2023-09-12T06:54:28;15.50;;;8.68;;
79330;SDS011;68797;49.782;19.054;2023-09-12T06:56:55;13.18;;;8.73;;
79330;SDS011;68797;49.782;19.054;2023-09-12T06:59:26;11.88;;;9.35;;
79330;SDS011;68797;49.782;19.054;2023-09-12T07:01:53;11.93;;;9.18;;
79330;SDS011;68797;49.782;19.054;2023-09-12T07:04:19;12.45;;;9.57;;
79330;SDS011;68797;49.782;19.054;2023-09-12T07:06:46;10.90;;;9.57;;
79330;SDS011;68797;49.782;19.054;2023-09-12T07:09:12;11.93;;;9.23;;
79330;SDS011;68797;49.782;19.054;2023-09-12T07:11:43;10.52;;;9.15;;
79330;SDS011;68797;49.782;19.054;2023-09-12T07:14:10;12.50;;;9.68;;
79330;SDS011;68797;49.782;19.054;2023-09-12T07:19:03;11.38;;;9.23;;
79330;SDS011;68797;49.782;19.054;2023-09-12T07:23:57;10.65;;;7.90;;
79330;SDS011;68797;49.782;19.054;2023-09-12T07:26:23;11.90;;;9.13;;
79330;SDS011;68797;49.782;19.054;2023-09-12T07:28:49;11.73;;;8.52;;
79330;SDS011;68797;49.782;19.054;2023-09-12T07:31:25;13.68;;;9.35;;
79330;SDS011;68797;49.782;19.054;2023-09-12T07:33:52;12.00;;;9.48;;
79330;SDS011;68797;49.782;19.054;2023-09-12T07:36:18;9.70;;;8.25;;
79330;SDS011;68797;49.782;19.054;2023-09-12T07:38:44;12.80;;;8.77;;
79330;SDS011;68797;49.782;19.054;2023-09-12T07:41:13;10.48;;;9.18;;
79330;SDS011;68797;49.782;19.054;2023-09-12T07:43:39;12.13;;;9.48;;
79330;SDS011;68797;49.782;19.054;2023-09-12T07:46:06;11.95;;;9.10;;
79330;SDS011;68797;49.782;19.054;2023-09-12T07:48:32;9.60;;;8.43;;
79330;SDS011;68797;49.782;19.054;2023-09-12T07:50:59;10.65;;;8.75;;
79330;SDS011;68797;49.782;19.054;2023-09-12T07:53:25;12.25;;;9.38;;
79330;SDS011;68797;49.782;19.054;2023-09-12T07:55:51;13.77;;;9.60;;
79330;SDS011;68797;49.782;19.054;2023-09-12T07:58:17;14.93;;;9.88;;
79330;SDS011;68797;49.782;19.054;2023-09-12T08:00:45;14.15;;;9.88;;
79330;SDS011;68797;49.782;19.054;2023-09-12T08:03:12;11.10;;;9.73;;
79330;SDS011;68797;49.782;19.054;2023-09-12T08:05:39;14.93;;;9.23;;
79330;SDS011;68797;49.782;19.054;2023-09-12T08:08:05;11.98;;;9.48;;
79330;SDS011;68797;49.782;19.054;2023-09-12T08:10:32;10.80;;;8.70;;
79330;SDS011;68797;49.782;19.054;2023-09-12T08:12:58;11.60;;;9.82;;
79330;SDS011;68797;49.782;19.054;2023-09-12T08:15:28;13.05;;;8.65;;
79330;SDS011;68797;49.782;19.054;2023-09-12T08:17:54;12.02;;;8.02;;
79330;SDS011;68797;49.782;19.054;2023-09-12T08:20:20;12.32;;;8.32;;
79330;SDS011;68797;49.782;19.054;2023-09-12T08:22:47;11.35;;;8.13;;
79330;SDS011;68797;49.782;19.054;2023-09-12T08:25:14;10.57;;;8.52;;
79330;SDS011;68797;49.782;19.054;2023-09-12T08:27:41;11.63;;;8.38;;
79330;SDS011;68797;49.782;19.054;2023-09-12T08:30:11;12.65;;;9.25;;
79330;SDS011;68797;49.782;19.054;2023-09-12T08:32:38;11.48;;;7.68;;
79330;SDS011;68797;49.782;19.054;2023-09-12T08:35:06;10.40;;;7.85;;
79330;SDS011;68797;49.782;19.054;2023-09-12T08:40:28;10.18;;;8.23;;
79330;SDS011;68797;49.782;19.054;2023-09-12T08:42:56;9.10;;;7.90;;
79330;SDS011;68797;49.782;19.054;2023-09-12T08:45:32;9.50;;;8.02;;
79330;SDS011;68797;49.782;19.054;2023-09-12T08:48:01;15.10;;;8.45;;
79330;SDS011;68797;49.782;19.054;2023-09-12T08:50:35;10.80;;;8.82;;
79330;SDS011;68797;49.782;19.054;2023-09-12T08:53:01;11.55;;;8.50;;
79330;SDS011;68797;49.782;19.054;2023-09-12T08:55:32;11.90;;;9.55;;
79330;SDS011;68797;49.782;19.054;2023-09-12T08:58:02;11.65;;;8.18;;
79330;SDS011;68797;49.782;19.054;2023-09-12T09:00:29;12.50;;;8.70;;
79330;SDS011;68797;49.782;19.054;2023-09-12T09:02:56;11.50;;;8.73;;
79330;SDS011;68797;49.782;19.054;2023-09-12T09:05:23;14.02;;;9.07;;
79330;SDS011;68797;49.782;19.054;2023-09-12T09:07:51;12.57;;;8.35;;
79330;SDS011;68797;49.782;19.054;2023-09-12T09:10:18;9.35;;;8.10;;
79330;SDS011;68797;49.782;19.054;2023-09-12T09:12:45;10.00;;;7.63;;
79330;SDS011;68797;49.782;19.054;2023-09-12T09:15:27;9.90;;;8.52;;
79330;SDS011;68797;49.782;19.054;2023-09-12T09:17:54;9.13;;;7.65;;
79330;SDS011;68797;49.782;19.054;2023-09-12T09:20:34;10.20;;;8.27;;
79330;SDS011;68797;49.782;19.054;2023-09-12T09:25:42;9.15;;;7.57;;
79330;SDS011;68797;49.782;19.054;2023-09-12T09:28:17;11.25;;;8.10;;
79330;SDS011;68797;49.782;19.054;2023-09-12T09:30:48;9.73;;;7.70;;
79330;SDS011;68797;49.782;19.054;2023-09-12T09:33:20;8.15;;;6.78;;
79330;SDS011;68797;49.782;19.054;2023-09-12T09:35:48;11.43;;;7.93;;
79330;SDS011;68797;49.782;19.054;2023-09-12T09:38:14;9.85;;;7.35;;
79330;SDS011;68797;49.782;19.054;2023-09-12T09:40:44;8.70;;;7.57;;
79330;SDS011;68797;49.782;19.054;2023-09-12T09:45:44;9.52;;;7.63;;
79330;SDS011;68797;49.782;19.054;2023-09-12T09:48:22;11.90;;;7.70;;
79330;SDS011;68797;49.782;19.054;2023-09-12T09:51:01;9.20;;;7.88;;
79330;SDS011;68797;49.782;19.054;2023-09-12T09:53:29;9.35;;;7.50;;
79330;SDS011;68797;49.782;19.054;2023-09-12T09:56:11;11.90;;;7.78;;
79330;SDS011;68797;49.782;19.054;2023-09-12T09:58:53;12.20;;;7.55;;
79330;SDS011;68797;49.782;19.054;2023-09-12T10:01:28;10.52;;;7.38;;
79330;SDS011;68797;49.782;19.054;2023-09-12T10:03:57;10.20;;;7.57;;
79330;SDS011;68797;49.782;19.054;2023-09-12T10:06:26;11.10;;;7.72;;
79330;SDS011;68797;49.782;19.054;2023-09-12T10:08:54;10.30;;;7.68;;
79330;SDS011;68797;49.782;19.054;2023-09-12T10:11:25;9.75;;;7.30;;
79330;SDS011;68797;49.782;19.054;2023-09-12T10:13:57;8.23;;;6.97;;
79330;SDS011;68797;49.782;19.054;2023-09-12T10:16:31;13.45;;;7.40;;
79330;SDS011;68797;49.782;19.054;2023-09-12T10:18:59;10.60;;;8.05;;
79330;SDS011;68797;49.782;19.054;2023-09-12T10:21:30;10.85;;;8.05;;
79330;SDS011;68797;49.782;19.054;2023-09-12T10:23:59;10.82;;;7.75;;
79330;SDS011;68797;49.782;19.054;2023-09-12T10:26:31;15.80;;;8.57;;
79330;SDS011;68797;49.782;19.054;2023-09-12T10:28:58;10.48;;;7.95;;
79330;SDS011;68797;49.782;19.054;2023-09-12T10:31:25;11.60;;;8.93;;
79330;SDS011;68797;49.782;19.054;2023-09-12T10:33:53;9.55;;;8.27;;
79330;SDS011;68797;49.782;19.054;2023-09-12T10:36:26;8.93;;;7.97;;
79330;SDS011;68797;49.782;19.054;2023-09-12T10:38:53;11.43;;;8.50;;
79330;SDS011;68797;49.782;19.054;2023-09-12T10:41:22;11.32;;;7.65;;
79330;SDS011;68797;49.782;19.054;2023-09-12T10:43:50;11.80;;;8.40;;
79330;SDS011;68797;49.782;19.054;2023-09-12T10:46:21;12.63;;;8.75;;
79330;SDS011;68797;49.782;19.054;2023-09-12T10:48:51;12.07;;;8.82;;
79330;SDS011;68797;49.782;19.054;2023-09-12T10:51:19;9.70;;;8.70;;
79330;SDS011;68797;49.782;19.054;2023-09-12T10:56:17;10.38;;;8.98;;
79330;SDS011;68797;49.782;19.054;2023-09-12T11:01:33;9.27;;;7.78;;
79330;SDS011;68797;49.782;19.054;2023-09-12T11:06:45;9.65;;;8.32;;
79330;SDS011;68797;49.782;19.054;2023-09-12T11:11:48;10.40;;;8.38;;
79330;SDS011;68797;49.782;19.054;2023-09-12T11:14:20;9.35;;;8.30;;
79330;SDS011;68797;49.782;19.054;2023-09-12T11:19:43;12.57;;;8.18;;
79330;SDS011;68797;49.782;19.054;2023-09-12T11:25:18;14.90;;;9.25;;
79330;SDS011;68797;49.782;19.054;2023-09-12T11:31:56;10.55;;;8.20;;
79330;SDS011;68797;49.782;19.054;2023-09-12T11:34:49;9.73;;;7.45;;
79330;SDS011;68797;49.782;19.054;2023-09-12T11:38:23;12.07;;;7.60;;
79330;SDS011;68797;49.782;19.054;2023-09-12T11:42:10;12.05;;;6.53;;
79330;SDS011;68797;49.782;19.054;2023-09-12T11:45:34;8.43;;;7.35;;
79330;SDS011;68797;49.782;19.054;2023-09-12T11:49:15;9.38;;;7.85;;
79330;SDS011;68797;49.782;19.054;2023-09-12T11:56:06;10.55;;;8.00;;
79330;SDS011;68797;49.782;19.054;2023-09-12T11:59:39;9.50;;;7.38;;
79330;SDS011;68797;49.782;19.054;2023-09-12T12:03:19;11.52;;;7.43;;
79330;SDS011;68797;49.782;19.054;2023-09-12T12:06:10;8.90;;;7.43;;
79330;SDS011;68797;49.782;19.054;2023-09-12T12:11:48;8.25;;;7.45;;
79330;SDS011;68797;49.782;19.054;2023-09-12T12:14:38;10.50;;;7.93;;
79330;SDS011;68797;49.782;19.054;2023-09-12T12:17:13;9.82;;;7.68;;
79330;SDS011;68797;49.782;19.054;2023-09-12T12:19:56;8.50;;;7.55;;
79330;SDS011;68797;49.782;19.054;2023-09-12T12:22:37;9.75;;;8.30;;
79330;SDS011;68797;49.782;19.054;2023-09-12T12:25:19;9.95;;;8.48;;
79330;SDS011;68797;49.782;19.054;2023-09-12T12:27:52;11.13;;;8.13;;
79330;SDS011;68797;49.782;19.054;2023-09-12T12:30:34;10.88;;;8.13;;
79330;SDS011;68797;49.782;19.054;2023-09-12T12:33:11;9.73;;;7.68;;
79330;SDS011;68797;49.782;19.054;2023-09-12T12:35:38;9.93;;;7.97;;
79330;SDS011;68797;49.782;19.054;2023-09-12T12:38:21;10.75;;;7.97;;
79330;SDS011;68797;49.782;19.054;2023-09-12T12:40:53;12.23;;;8.23;;
79330;SDS011;68797;49.782;19.054;2023-09-12T12:43:24;9.38;;;7.85;;
79330;SDS011;68797;49.782;19.054;2023-09-12T12:45:58;9.63;;;7.07;;
79330;SDS011;68797;49.782;19.054;2023-09-12T12:49:06;8.70;;;7.00;;
79330;SDS011;68797;49.782;19.054;2023-09-12T12:51:44;9.32;;;7.28;;
79330;SDS011;68797;49.782;19.054;2023-09-12T12:54:21;11.45;;;7.22;;
79330;SDS011;68797;49.782;19.054;2023-09-12T12:56:52;10.25;;;7.72;;
79330;SDS011;68797;49.782;19.054;2023-09-12T12:59:26;8.93;;;6.95;;
79330;SDS011;68797;49.782;19.054;2023-09-12T13:01:53;12.20;;;7.43;;
79330;SDS011;68797;49.782;19.054;2023-09-12T13:04:23;7.93;;;7.13;;
79330;SDS011;68797;49.782;19.054;2023-09-12T13:07:23;9.15;;;7.72;;
79330;SDS011;68797;49.782;19.054;2023-09-12T13:09:52;7.82;;;6.63;;
79330;SDS011;68797;49.782;19.054;2023-09-12T13:12:56;9.27;;;7.55;;
79330;SDS011;68797;49.782;19.054;2023-09-12T13:15:30;10.50;;;8.23;;
79330;SDS011;68797;49.782;19.054;2023-09-12T13:18:04;9.25;;;7.05;;
79330;SDS011;68797;49.782;19.054;2023-09-12T13:20:36;9.27;;;7.22;;
79330;SDS011;68797;49.782;19.054;2023-09-12T13:23:11;15.40;;;8.02;;
79330;SDS011;68797;49.782;19.054;2023-09-12T13:25:44;10.27;;;7.97;;
79330;SDS011;68797;49.782;19.054;2023-09-12T13:28:10;9.40;;;7.57;;
79330;SDS011;68797;49.782;19.054;2023-09-12T13:30:40;10.27;;;8.05;;
79330;SDS011;68797;49.782;19.054;2023-09-12T13:33:11;9.30;;;8.13;;
79330;SDS011;68797;49.782;19.054;2023-09-12T16:09:17;13.20;;;10.27;;
79330;SDS011;68797;49.782;19.054;2023-09-12T16:17:15;16.20;;;9.23;;
79330;SDS011;68797;49.782;19.054;2023-09-12T16:26:14;12.52;;;9.55;;
79330;SDS011;68797;49.782;19.054;2023-09-12T16:29:15;13.05;;;9.07;;
79330;SDS011;68797;49.782;19.054;2023-09-12T16:31:42;16.27;;;9.57;;
79330;SDS011;68797;49.782;19.054;2023-09-12T16:34:08;13.52;;;9.98;;
79330;SDS011;68797;49.782;19.054;2023-09-12T16:36:37;15.45;;;8.98;;
79330;SDS011;68797;49.782;19.054;2023-09-12T16:39:03;13.80;;;9.88;;
79330;SDS011;68797;49.782;19.054;2023-09-12T16:41:30;18.65;;;10.73;;
79330;SDS011;68797;49.782;19.054;2023-09-12T16:43:59;16.17;;;9.85;;
79330;SDS011;68797;49.782;19.054;2023-09-12T16:46:25;17.17;;;10.50;;
79330;SDS011;68797;49.782;19.054;2023-09-12T16:48:51;22.17;;;10.02;;
79330;SDS011;68797;49.782;19.054;2023-09-12T16:51:17;20.08;;;9.73;;
79330;SDS011;68797;49.782;19.054;2023-09-12T16:53:44;19.05;;;11.10;;
79330;SDS011;68797;49.782;19.054;2023-09-12T16:56:10;19.63;;;10.60;;
79330;SDS011;68797;49.782;19.054;2023-09-12T17:02:24;21.85;;;10.02;;
79330;SDS011;68797;49.782;19.054;2023-09-12T17:05:07;39.40;;;10.93;;
79330;SDS011;68797;49.782;19.054;2023-09-12T17:07:41;26.40;;;10.80;;
79330;SDS011;68797;49.782;19.054;2023-09-12T17:10:07;13.93;;;9.52;;
79330;SDS011;68797;49.782;19.054;2023-09-12T17:12:35;15.02;;;9.77;;
79330;SDS011;68797;49.782;19.054;2023-09-12T17:15:01;30.38;;;10.65;;
79330;SDS011;68797;49.782;19.054;2023-09-12T17:17:28;35.97;;;11.10;;
79330;SDS011;68797;49.782;19.054;2023-09-12T17:19:55;25.75;;;10.88;;
79330;SDS011;68797;49.782;19.054;2023-09-12T17:22:22;27.42;;;10.77;;
79330;SDS011;68797;49.782;19.054;2023-09-12T17:24:48;27.00;;;10.05;;
79330;SDS011;68797;49.782;19.054;2023-09-12T17:27:14;24.20;;;10.40;;
79330;SDS011;68797;49.782;19.054;2023-09-12T17:29:41;13.07;;;10.02;;
79330;SDS011;68797;49.782;19.054;2023-09-12T17:32:08;15.55;;;10.45;;
79330;SDS011;68797;49.782;19.054;2023-09-12T17:34:39;17.88;;;10.40;;
79330;SDS011;68797;49.782;19.054;2023-09-12T17:37:07;14.15;;;9.20;;
79330;SDS011;68797;49.782;19.054;2023-09-12T17:39:34;11.02;;;9.40;;
79330;SDS011;68797;49.782;19.054;2023-09-12T17:42:01;11.52;;;8.98;;
79330;SDS011;68797;49.782;19.054;2023-09-12T17:44:27;13.48;;;9.68;;
79330;SDS011;68797;49.782;19.054;2023-09-12T17:50:50;15.52;;;9.63;;
79330;SDS011;68797;49.782;19.054;2023-09-12T17:53:17;15.43;;;9.77;;
79330;SDS011;68797;49.782;19.054;2023-09-12T17:55:44;11.07;;;9.45;;
79330;SDS011;68797;49.782;19.054;2023-09-12T17:58:11;13.57;;;9.43;;
79330;SDS011;68797;49.782;19.054;2023-09-12T18:00:40;13.98;;;9.15;;
79330;SDS011;68797;49.782;19.054;2023-09-12T18:03:06;11.93;;;9.60;;
79330;SDS011;68797;49.782;19.054;2023-09-12T18:09:22;10.77;;;8.63;;
79330;SDS011;68797;49.782;19.054;2023-09-12T18:12:12;14.50;;;9.63;;
79330;SDS011;68797;49.782;19.054;2023-09-12T18:15:14;14.70;;;9.68;;
79330;SDS011;68797;49.782;19.054;2023-09-12T18:18:21;12.38;;;9.95;;
79330;SDS011;68797;49.782;19.054;2023-09-12T18:21:51;12.93;;;9.07;;
79330;SDS011;68797;49.782;19.054;2023-09-12T18:27:40;15.40;;;9.57;;
79330;SDS011;68797;49.782;19.054;2023-09-12T18:31:44;15.48;;;9.55;;
79330;SDS011;68797;49.782;19.054;2023-09-12T18:35:33;12.93;;;9.57;;
79330;SDS011;68797;49.782;19.054;2023-09-12T18:42:42;13.77;;;9.30;;